createdAt,value
2024-04-06T00:02:02.513Z,67.79
2024-04-06T00:07:04.096Z,67.85
2024-04-06T00:12:05.654Z,67.77
2024-04-06T00:17:06.831Z,68.20
2024-04-06T00:22:07.986Z,67.94
2024-04-06T00:27:09.153Z,67.97
2024-04-06T00:32:10.231Z,67.81
2024-04-06T00:37:11.318Z,67.70
2024-04-06T00:42:12.472Z,67.53
2024-04-06T00:47:13.787Z,67.33
2024-04-06T00:52:15.079Z,67.18
2024-04-06T00:57:16.450Z,67.15
2024-04-06T01:02:17.701Z,67.29
2024-04-06T01:07:19.352Z,67.29
2024-04-06T01:12:20.746Z,67.35
2024-04-06T01:17:22.189Z,67.20
2024-04-06T01:22:23.357Z,67.16
2024-04-06T01:27:24.649Z,67.42
2024-04-06T01:32:25.867Z,67.65
2024-04-06T01:37:28.780Z,67.45
2024-04-06T01:42:30.041Z,67.59
2024-04-06T01:47:31.294Z,67.62
2024-04-06T01:52:32.767Z,67.78
2024-04-06T01:57:34.347Z,67.82
2024-04-06T02:02:35.742Z,67.85
2024-04-06T02:07:37.308Z,67.91
2024-04-06T02:12:38.602Z,68.05
2024-04-06T02:17:39.847Z,68.38
2024-04-06T02:22:41.170Z,68.44
2024-04-06T02:27:42.330Z,67.98
2024-04-06T02:32:43.580Z,67.45
2024-04-06T02:37:45.404Z,67.55
2024-04-06T02:42:47.034Z,67.52
2024-04-06T02:47:48.307Z,67.47
2024-04-06T02:52:49.468Z,67.39
2024-04-06T02:57:50.822Z,67.28
2024-04-06T03:02:51.996Z,67.07
2024-04-06T03:07:53.683Z,67.00
2024-04-06T03:12:55.124Z,67.04
2024-04-06T03:17:56.473Z,66.94
2024-04-06T03:23:05.364Z,66.75
2024-04-06T03:28:06.634Z,66.90
2024-04-06T03:33:07.800Z,67.11
2024-04-06T03:38:09.036Z,67.21
2024-04-06T03:43:10.279Z,67.13
2024-04-06T03:48:11.520Z,66.93
2024-04-06T03:53:13.192Z,66.23
2024-04-06T03:58:14.859Z,65.47
2024-04-06T04:07:11.066Z,66.16
2024-04-06T04:12:12.976Z,66.64
2024-04-06T04:17:14.822Z,67.15
2024-04-06T04:22:16.912Z,67.59
2024-04-06T04:27:19.396Z,67.64
2024-04-06T04:32:21.081Z,67.70
2024-04-06T04:37:22.866Z,67.88
2024-04-06T04:42:24.852Z,68.04
2024-04-06T04:47:26.856Z,68.24
2024-04-06T04:52:28.679Z,68.42
2024-04-06T04:57:30.575Z,68.56
2024-04-06T05:02:32.235Z,68.48
2024-04-06T05:07:33.919Z,67.99
2024-04-06T05:12:35.685Z,67.67
2024-04-06T05:17:38.811Z,67.50
2024-04-06T05:22:40.757Z,67.29
2024-04-06T05:27:42.760Z,67.01
2024-04-06T05:32:44.777Z,66.88
2024-04-06T05:37:46.518Z,66.52
2024-04-06T05:42:48.708Z,65.83
2024-04-06T05:47:51.379Z,65.41
2024-04-06T05:52:53.254Z,64.67
2024-04-06T05:57:55.153Z,64.32
2024-04-06T06:02:57.402Z,64.07
2024-04-06T06:08:00.047Z,63.31
2024-04-06T06:13:01.899Z,62.44
2024-04-06T06:18:04.644Z,61.95
2024-04-06T06:23:06.779Z,61.43
2024-04-06T06:28:08.673Z,60.63
2024-04-06T06:33:10.602Z,59.87
2024-04-06T06:38:12.605Z,59.22
2024-04-06T09:08:21.104Z,42.98
2024-04-06T09:13:25.004Z,43.37
2024-04-06T09:18:30.657Z,43.17
2024-04-06T09:23:32.820Z,42.80
2024-04-06T09:28:35.544Z,43.08
2024-04-06T09:33:37.734Z,41.60
2024-04-06T09:38:39.970Z,42.44
2024-04-06T09:43:41.671Z,42.43
2024-04-06T09:48:44.136Z,42.06
2024-04-06T09:53:48.156Z,42.54
2024-04-06T09:58:49.824Z,41.57
2024-04-06T10:03:51.576Z,42.59
2024-04-06T10:08:57.968Z,42.91
2024-04-06T10:14:04.057Z,42.69
2024-04-06T10:19:07.711Z,42.75
2024-04-06T10:24:14.168Z,41.93
2024-04-06T10:29:16.445Z,41.78
2024-04-06T10:34:18.419Z,41.39
2024-04-06T10:39:20.306Z,40.77
2024-04-06T10:44:22.038Z,40.10
2024-04-06T10:49:23.883Z,40.45
2024-04-06T10:54:25.845Z,40.89
2024-04-06T10:59:27.935Z,41.45
2024-04-06T11:04:29.652Z,41.81
2024-04-06T11:09:31.816Z,41.17
2024-04-06T11:14:33.477Z,40.77
2024-04-06T11:19:35.252Z,40.84
2024-04-06T11:24:38.819Z,40.36
2024-04-06T11:29:44.501Z,40.18
2024-04-06T11:34:50.375Z,40.39
2024-04-06T11:39:52.576Z,40.53
2024-04-06T11:44:54.409Z,41.59
2024-04-06T11:49:56.143Z,43.07
2024-04-06T11:54:57.847Z,43.25
2024-04-06T11:59:59.747Z,44.14
2024-04-06T12:05:01.452Z,44.14
2024-04-06T12:10:03.259Z,44.20
2024-04-06T12:15:05.812Z,44.32
2024-04-06T12:20:07.772Z,43.85
2024-04-06T12:25:11.049Z,44.83
2024-04-06T12:30:15.750Z,46.64
2024-04-06T12:35:21.231Z,47.39
2024-04-06T12:40:27.104Z,47.84
2024-04-06T12:45:29.251Z,47.77
2024-04-06T12:50:30.876Z,47.70
2024-04-06T12:55:32.576Z,47.76
2024-04-06T13:00:34.612Z,48.18
2024-04-06T14:02:08.987Z,46.16
2024-04-06T14:07:14.092Z,44.83
2024-04-06T14:12:22.177Z,44.02
2024-04-06T14:17:24.350Z,44.28
2024-04-06T14:22:26.139Z,44.48
2024-04-06T14:27:28.110Z,44.19
2024-04-06T14:32:30.081Z,43.07
2024-04-06T14:37:31.888Z,44.10
2024-04-06T14:42:33.649Z,44.01
2024-04-06T14:47:35.578Z,44.57
2024-04-06T14:52:39.080Z,45.01
2024-04-06T14:57:40.944Z,44.10
2024-04-06T15:02:44.472Z,42.71
2024-04-06T15:07:46.327Z,44.09
2024-04-06T15:12:48.397Z,44.29
2024-04-06T15:17:50.125Z,44.83
2024-04-06T15:22:51.831Z,46.14
2024-04-06T15:27:53.511Z,47.04
2024-04-06T15:32:55.839Z,47.53
2024-04-06T15:37:57.828Z,47.12
2024-04-06T15:42:59.610Z,46.87
2024-04-06T15:48:01.523Z,47.29
2024-04-06T15:53:05.731Z,47.89
2024-04-06T15:58:07.419Z,47.74
2024-04-06T16:03:09.443Z,47.38
2024-04-06T16:08:11.286Z,46.77
2024-04-06T16:13:13.103Z,47.72
2024-04-06T16:18:14.863Z,48.04
2024-04-06T16:23:16.687Z,47.89
2024-04-06T16:28:18.387Z,48.00
2024-04-06T16:33:20.118Z,48.71
2024-04-06T16:38:22.681Z,49.36
2024-04-06T16:43:24.579Z,49.72
2024-04-06T16:48:26.344Z,50.49
2024-04-06T16:53:28.073Z,51.20
2024-04-06T16:58:29.957Z,52.56
2024-04-06T17:03:32.140Z,53.71
2024-04-06T17:08:33.920Z,54.94
2024-04-06T17:13:35.920Z,55.23
2024-04-06T17:18:37.651Z,56.13
2024-04-06T17:23:39.729Z,58.02
2024-04-06T17:28:41.540Z,58.97
2024-04-06T17:33:44.044Z,58.86
2024-04-06T17:38:46.496Z,59.83
2024-04-06T17:43:48.182Z,60.55
2024-04-06T17:48:49.831Z,63.42
2024-04-06T17:53:52.676Z,64.20
2024-04-06T17:58:54.403Z,64.29
2024-04-06T18:03:56.055Z,63.44
2024-04-06T18:08:58.198Z,65.06
2024-04-06T18:13:59.965Z,65.68
2024-04-06T18:19:02.377Z,66.45
2024-04-06T18:24:04.950Z,68.60
2024-04-06T18:29:08.668Z,68.97
2024-04-06T18:34:10.685Z,69.14
2024-04-06T18:39:12.638Z,68.72
2024-04-06T18:44:14.828Z,66.24
2024-04-06T18:49:16.583Z,68.57
2024-04-06T18:54:26.947Z,68.79
2024-04-06T18:59:30.110Z,69.28
2024-04-06T19:04:31.903Z,68.64
2024-04-06T19:09:33.728Z,68.31
2024-04-06T19:14:35.599Z,68.29
2024-04-06T19:19:37.379Z,67.95
2024-04-06T19:24:39.152Z,70.23
2024-04-06T19:29:41.614Z,73.22
2024-04-06T19:34:43.838Z,73.69
2024-04-06T19:39:46.203Z,71.53
2024-04-06T19:44:47.971Z,71.90
2024-04-06T19:49:49.780Z,73.59
2024-04-06T19:54:51.551Z,74.35
2024-04-06T19:59:53.174Z,74.79
2024-04-06T20:04:54.884Z,74.10
2024-04-06T20:09:56.558Z,73.85
2024-04-06T20:14:58.273Z,75.11
2024-04-06T20:20:00.208Z,75.12
2024-04-06T20:25:21.191Z,74.76
2024-04-06T20:30:24.267Z,75.03
2024-04-06T20:35:26.063Z,75.80
2024-04-06T20:40:27.824Z,75.13
2024-04-06T20:45:29.519Z,73.86
2024-04-06T20:50:31.565Z,75.20
2024-04-06T20:55:33.368Z,76.55
2024-04-06T21:00:35.257Z,77.31
2024-04-06T21:05:36.893Z,77.80
2024-04-06T21:10:39.334Z,77.72
2024-04-06T21:15:42.176Z,76.40
2024-04-06T21:20:43.842Z,75.13
2024-04-06T21:25:45.706Z,74.22
2024-04-06T21:30:47.900Z,74.25
2024-04-06T21:51:41.744Z,79.29
2024-04-06T21:56:44.083Z,79.60
2024-04-06T22:01:45.954Z,79.84
2024-04-06T22:06:47.630Z,80.27
2024-04-06T22:11:52.765Z,77.90
2024-04-06T22:16:56.501Z,79.36
2024-04-06T22:21:58.406Z,79.01
2024-04-06T22:27:02.674Z,77.89
2024-04-06T22:32:04.821Z,78.56
2024-04-06T22:37:06.672Z,78.74
2024-04-06T22:42:08.479Z,78.90
2024-04-06T22:47:10.183Z,78.04
2024-04-06T22:52:12.509Z,76.58
2024-04-06T22:57:14.194Z,77.13
2024-04-06T23:02:15.971Z,77.13
2024-04-06T23:07:17.677Z,77.14
2024-04-06T23:12:19.351Z,78.07
2024-04-06T23:17:21.079Z,78.22
2024-04-06T23:22:23.037Z,78.89
2024-04-06T23:27:28.025Z,79.35
2024-04-06T23:32:29.675Z,79.85
2024-04-06T23:37:31.388Z,80.30
2024-04-06T23:42:33.407Z,80.22
2024-04-06T23:47:35.515Z,79.11
2024-04-06T23:52:37.302Z,80.26
2024-04-06T23:57:39.381Z,79.49
